^^
Meteo Knjazevac Station Historical Data
Daily Summary for August 20, 2021 Units:  Both    English   Metric
Daily Weekly Monthly Yearly Custom
  High: Low: Average:
Temperature: 37.4 °F /  3 °C 34 °F /  1.1 °C 35.7 °F /  2.1 °C
Dew Point: 37 °F /  2.8 °C 33.7 °F /  0.9 °C 35.3 °F /  1.8 °C
Humidity: 99% 96% 99%
Wind Speed: 3mph /  4.8km/h - 2.1mph /  3.4km/h
Wind Gust: 7mph /  11.3km/h - -
Wind- - West
Pressure: 30.43 in /  1030.4 hPa 30.41 in /  1029.7 hPa -
Precipitation: 0.00 in /  0 mm    
Historical Graphs
 
 
Tabular Data for August 20, 2021
Time Temperature Dew Point Pressure Wind Wind Speed Wind Gust Humidity Rainfall Rate (Hourly) solar Conditions
00:00 37.4 °F /  3 °C 36.4 °F /  2.4 °C 30.42in /  1030hPa West 2mph /  3.2km/h 4mph /  6.4km/h 96% 0.00in /  0mm 0 W/m2
00:10 37.4 °F /  3 °C 36.9 °F /  2.7 °C 30.43in /  1030.4hPa WNW 2mph /  3.2km/h 7mph /  11.3km/h 98% 0.00in /  0mm 0 W/m2
00:20 37.2 °F /  2.9 °C 36.7 °F /  2.6 °C 30.43in /  1030.4hPa West 2mph /  3.2km/h 4mph /  6.4km/h 98% 0.00in /  0mm 0 W/m2
00:30 37.2 °F /  2.9 °C 37 °F /  2.8 °C 30.43in /  1030.4hPa West 2mph /  3.2km/h 6mph /  9.7km/h 99% 0.00in /  0mm 0 W/m2
00:40 37 °F /  2.8 °C 36.8 °F /  2.7 °C 30.43in /  1030.4hPa West 3mph /  4.8km/h 4mph /  6.4km/h 99% 0.00in /  0mm 0 W/m2
00:50 36.9 °F /  2.7 °C 36.6 °F /  2.6 °C 30.43in /  1030.4hPa West 2mph /  3.2km/h 4mph /  6.4km/h 99% 0.00in /  0mm 0 W/m2
01:00 36.7 °F /  2.6 °C 36.4 °F /  2.4 °C 30.43in /  1030.4hPa West 2mph /  3.2km/h 3mph /  4.8km/h 99% 0.00in /  0mm 0 W/m2
01:10 36.5 °F /  2.5 °C 36 °F /  2.2 °C 30.42in /  1030hPa West 2mph /  3.2km/h 3mph /  4.8km/h 98% 0.00in /  0mm 0 W/m2
01:20 36.3 °F /  2.4 °C 36.1 °F /  2.3 °C 30.42in /  1030hPa WNW 2mph /  3.2km/h 4mph /  6.4km/h 99% 0.00in /  0mm 0 W/m2
01:30 36.2 °F /  2.3 °C 36 °F /  2.2 °C 30.42in /  1030hPa WNW 2mph /  3.2km/h 3mph /  4.8km/h 99% 0.00in /  0mm 0 W/m2
01:40 36.1 °F /  2.3 °C 35.9 °F /  2.2 °C 30.42in /  1030hPa WNW 1mph /  1.6km/h 3mph /  4.8km/h 99% 0.00in /  0mm 0 W/m2
01:50 35.9 °F /  2.2 °C 35.6 °F /  2 °C 30.42in /  1030hPa West 2mph /  3.2km/h 3mph /  4.8km/h 99% 0.00in /  0mm 0 W/m2
02:00 35.4 °F /  1.9 °C 34.9 °F /  1.6 °C 30.42in /  1030hPa West 1mph /  1.6km/h 3mph /  4.8km/h 98% 0.00in /  0mm 0 W/m2
02:10 35.1 °F /  1.7 °C 34.6 °F /  1.4 °C 30.42in /  1030hPa West 1mph /  1.6km/h 3mph /  4.8km/h 98% 0.00in /  0mm 0 W/m2
02:20 34.7 °F /  1.5 °C 34.2 °F /  1.2 °C 30.42in /  1030hPa West 3mph /  4.8km/h 5mph /  8km/h 98% 0.00in /  0mm 0 W/m2
02:30 34.7 °F /  1.5 °C 34.4 °F /  1.3 °C 30.41in /  1029.7hPa WNW 3mph /  4.8km/h 6mph /  9.7km/h 99% 0.00in /  0mm 0 W/m2
02:40 35.1 °F /  1.7 °C 34.8 °F /  1.6 °C 30.41in /  1029.7hPa WNW 3mph /  4.8km/h 6mph /  9.7km/h 99% 0.00in /  0mm 0 W/m2
02:50 35.2 °F /  1.8 °C 35 °F /  1.7 °C 30.41in /  1029.7hPa West 2mph /  3.2km/h 5mph /  8km/h 99% 0.00in /  0mm 0 W/m2
03:00 34.9 °F /  1.6 °C 34.6 °F /  1.4 °C 30.41in /  1029.7hPa WNW 2mph /  3.2km/h 5mph /  8km/h 99% 0.00in /  0mm 0 W/m2
03:10 34.7 °F /  1.5 °C 34.4 °F /  1.3 °C 30.41in /  1029.7hPa West 2mph /  3.2km/h 4mph /  6.4km/h 99% 0.00in /  0mm 0 W/m2
03:20 34.3 °F /  1.3 °C 34.1 °F /  1.2 °C 30.41in /  1029.7hPa West 2mph /  3.2km/h 4mph /  6.4km/h 99% 0.00in /  0mm 0 W/m2
03:30 34.2 °F /  1.2 °C 33.9 °F /  1.1 °C 30.41in /  1029.7hPa West 3mph /  4.8km/h 5mph /  8km/h 99% 0.00in /  0mm 0 W/m2
03:40 34.2 °F /  1.2 °C 33.9 °F /  1.1 °C 30.41in /  1029.7hPa West 2mph /  3.2km/h 5mph /  8km/h 99% 0.00in /  0mm 0 W/m2
03:50 34 °F /  1.1 °C 33.7 °F /  0.9 °C 30.41in /  1029.7hPa West 2mph /  3.2km/h 3mph /  4.8km/h 99% 0.00in /  0mm 0 W/m2
04:00 34 °F /  1.1 °C 33.7 °F /  0.9 °C 30.41in /  1029.7hPa WNW 2mph /  3.2km/h 4mph /  6.4km/h 99% 0.00in /  0mm 0 W/m2
Knjazevac, Serbia
Compliments of Weather Underground - 2 mb